sensor_id;sensor_type;location;lat;lon;timestamp;temperature;humidity
39045;DHT22;52192;52.002;5.956;2023-08-12T00:00:19;23.90;79.80
39045;DHT22;52192;52.002;5.956;2023-08-12T00:02:45;23.90;79.80
39045;DHT22;52192;52.002;5.956;2023-08-12T00:05:11;23.90;79.80
39045;DHT22;52192;52.002;5.956;2023-08-12T00:07:37;23.90;79.80
39045;DHT22;52192;52.002;5.956;2023-08-12T00:10:04;23.90;79.80
39045;DHT22;52192;52.002;5.956;2023-08-12T00:12:33;23.90;79.90
39045;DHT22;52192;52.002;5.956;2023-08-12T00:15:00;23.90;79.80
39045;DHT22;52192;52.002;5.956;2023-08-12T00:17:26;23.90;79.80
39045;DHT22;52192;52.002;5.956;2023-08-12T00:19:52;23.80;79.90
39045;DHT22;52192;52.002;5.956;2023-08-12T00:22:17;23.80;79.90
39045;DHT22;52192;52.002;5.956;2023-08-12T00:24:43;23.80;80.00
39045;DHT22;52192;52.002;5.956;2023-08-12T00:27:10;23.80;80.00
39045;DHT22;52192;52.002;5.956;2023-08-12T00:29:36;23.80;80.00
39045;DHT22;52192;52.002;5.956;2023-08-12T00:32:02;23.70;80.10
39045;DHT22;52192;52.002;5.956;2023-08-12T00:34:27;23.80;80.30
39045;DHT22;52192;52.002;5.956;2023-08-12T00:36:53;23.70;80.30
39045;DHT22;52192;52.002;5.956;2023-08-12T00:39:19;23.70;80.40
39045;DHT22;52192;52.002;5.956;2023-08-12T00:41:44;23.70;80.30
39045;DHT22;52192;52.002;5.956;2023-08-12T00:44:10;23.70;80.40
39045;DHT22;52192;52.002;5.956;2023-08-12T00:46:38;23.70;80.40
39045;DHT22;52192;52.002;5.956;2023-08-12T00:49:04;23.70;80.50
39045;DHT22;52192;52.002;5.956;2023-08-12T00:51:30;23.70;80.60
39045;DHT22;52192;52.002;5.956;2023-08-12T00:53:58;23.70;81.30
39045;DHT22;52192;52.002;5.956;2023-08-12T00:56:24;23.60;80.70
39045;DHT22;52192;52.002;5.956;2023-08-12T00:58:50;23.60;80.70
39045;DHT22;52192;52.002;5.956;2023-08-12T01:01:15;23.60;80.70
39045;DHT22;52192;52.002;5.956;2023-08-12T01:03:43;23.60;80.80
39045;DHT22;52192;52.002;5.956;2023-08-12T01:06:09;23.60;80.80
39045;DHT22;52192;52.002;5.956;2023-08-12T01:08:35;23.60;80.90
39045;DHT22;52192;52.002;5.956;2023-08-12T01:11:14;23.60;80.90
39045;DHT22;52192;52.002;5.956;2023-08-12T01:16:14;23.60;81.00
39045;DHT22;52192;52.002;5.956;2023-08-12T01:18:42;23.60;81.00
39045;DHT22;52192;52.002;5.956;2023-08-12T01:21:12;23.60;81.10
39045;DHT22;52192;52.002;5.956;2023-08-12T01:23:41;23.60;81.10
39045;DHT22;52192;52.002;5.956;2023-08-12T01:26:07;23.60;81.10
39045;DHT22;52192;52.002;5.956;2023-08-12T01:28:32;23.60;81.10
39045;DHT22;52192;52.002;5.956;2023-08-12T01:31:07;23.60;81.10
39045;DHT22;52192;52.002;5.956;2023-08-12T01:33:52;23.60;81.00
39045;DHT22;52192;52.002;5.956;2023-08-12T01:36:20;23.60;81.10
39045;DHT22;52192;52.002;5.956;2023-08-12T01:38:50;23.60;81.10
39045;DHT22;52192;52.002;5.956;2023-08-12T01:41:16;23.60;81.10
39045;DHT22;52192;52.002;5.956;2023-08-12T01:43:44;23.60;81.20
39045;DHT22;52192;52.002;5.956;2023-08-12T01:46:10;23.60;81.20
39045;DHT22;52192;52.002;5.956;2023-08-12T01:48:36;23.60;81.20
39045;DHT22;52192;52.002;5.956;2023-08-12T01:51:01;23.60;81.10
39045;DHT22;52192;52.002;5.956;2023-08-12T01:53:27;23.60;81.10
39045;DHT22;52192;52.002;5.956;2023-08-12T01:55:53;23.60;81.10
39045;DHT22;52192;52.002;5.956;2023-08-12T01:58:18;23.60;81.00
39045;DHT22;52192;52.002;5.956;2023-08-12T02:00:44;23.50;81.00
39045;DHT22;52192;52.002;5.956;2023-08-12T02:03:10;23.50;81.00
39045;DHT22;52192;52.002;5.956;2023-08-12T02:05:35;23.50;81.10
39045;DHT22;52192;52.002;5.956;2023-08-12T02:08:06;23.50;81.20
39045;DHT22;52192;52.002;5.956;2023-08-12T02:10:32;23.50;81.30
39045;DHT22;52192;52.002;5.956;2023-08-12T02:12:57;23.50;81.50
39045;DHT22;52192;52.002;5.956;2023-08-12T02:15:23;23.40;81.50
39045;DHT22;52192;52.002;5.956;2023-08-12T02:17:49;23.40;81.50
39045;DHT22;52192;52.002;5.956;2023-08-12T02:20:14;23.40;81.40
39045;DHT22;52192;52.002;5.956;2023-08-12T02:22:40;23.40;81.40
39045;DHT22;52192;52.002;5.956;2023-08-12T02:25:06;23.40;81.40
39045;DHT22;52192;52.002;5.956;2023-08-12T02:27:32;23.40;81.40
39045;DHT22;52192;52.002;5.956;2023-08-12T02:29:57;23.40;81.50
39045;DHT22;52192;52.002;5.956;2023-08-12T02:32:23;23.40;81.50
39045;DHT22;52192;52.002;5.956;2023-08-12T02:34:49;23.40;81.60
39045;DHT22;52192;52.002;5.956;2023-08-12T02:37:14;23.40;81.70
39045;DHT22;52192;52.002;5.956;2023-08-12T02:39:40;23.40;81.70
39045;DHT22;52192;52.002;5.956;2023-08-12T02:42:06;23.40;81.70
39045;DHT22;52192;52.002;5.956;2023-08-12T02:44:31;23.40;81.80
39045;DHT22;52192;52.002;5.956;2023-08-12T02:46:57;23.40;81.90
39045;DHT22;52192;52.002;5.956;2023-08-12T02:49:23;23.40;81.80
39045;DHT22;52192;52.002;5.956;2023-08-12T02:51:48;23.40;81.80
39045;DHT22;52192;52.002;5.956;2023-08-12T02:54:14;23.40;81.90
39045;DHT22;52192;52.002;5.956;2023-08-12T02:56:40;23.40;82.00
39045;DHT22;52192;52.002;5.956;2023-08-12T02:59:06;23.40;82.10
39045;DHT22;52192;52.002;5.956;2023-08-12T03:01:31;23.40;82.10
39045;DHT22;52192;52.002;5.956;2023-08-12T03:03:57;23.30;82.20
39045;DHT22;52192;52.002;5.956;2023-08-12T03:06:22;23.30;82.20
39045;DHT22;52192;52.002;5.956;2023-08-12T03:08:48;23.30;82.40
39045;DHT22;52192;52.002;5.956;2023-08-12T03:11:14;23.30;82.50
39045;DHT22;52192;52.002;5.956;2023-08-12T03:13:41;23.30;82.50
39045;DHT22;52192;52.002;5.956;2023-08-12T03:16:14;23.30;82.50
39045;DHT22;52192;52.002;5.956;2023-08-12T03:18:40;23.30;82.50
39045;DHT22;52192;52.002;5.956;2023-08-12T03:21:07;23.30;82.50
39045;DHT22;52192;52.002;5.956;2023-08-12T03:23:36;23.30;82.50
39045;DHT22;52192;52.002;5.956;2023-08-12T03:26:03;23.30;82.50
39045;DHT22;52192;52.002;5.956;2023-08-12T03:28:29;23.30;82.50
39045;DHT22;52192;52.002;5.956;2023-08-12T03:30:55;23.30;82.50
39045;DHT22;52192;52.002;5.956;2023-08-12T03:33:20;23.30;83.10
39045;DHT22;52192;52.002;5.956;2023-08-12T03:35:49;23.30;82.50
39045;DHT22;52192;52.002;5.956;2023-08-12T03:38:15;23.30;82.50
39045;DHT22;52192;52.002;5.956;2023-08-12T03:40:41;23.30;82.50
39045;DHT22;52192;52.002;5.956;2023-08-12T03:43:08;23.30;82.50
39045;DHT22;52192;52.002;5.956;2023-08-12T03:45:40;23.30;82.50
39045;DHT22;52192;52.002;5.956;2023-08-12T03:48:06;23.30;82.50
39045;DHT22;52192;52.002;5.956;2023-08-12T03:50:39;23.30;82.50
39045;DHT22;52192;52.002;5.956;2023-08-12T03:53:05;23.30;82.50
39045;DHT22;52192;52.002;5.956;2023-08-12T03:55:32;23.30;82.60
39045;DHT22;52192;52.002;5.956;2023-08-12T03:58:01;23.20;82.70
39045;DHT22;52192;52.002;5.956;2023-08-12T04:00:27;23.20;83.00
39045;DHT22;52192;52.002;5.956;2023-08-12T04:02:53;23.20;83.00
39045;DHT22;52192;52.002;5.956;2023-08-12T04:05:19;23.20;83.00
39045;DHT22;52192;52.002;5.956;2023-08-12T04:07:45;23.20;82.90
39045;DHT22;52192;52.002;5.956;2023-08-12T04:10:12;23.20;82.90
39045;DHT22;52192;52.002;5.956;2023-08-12T04:12:40;23.30;82.90
39045;DHT22;52192;52.002;5.956;2023-08-12T04:15:06;23.20;82.90
39045;DHT22;52192;52.002;5.956;2023-08-12T04:17:32;23.30;82.90
39045;DHT22;52192;52.002;5.956;2023-08-12T04:19:57;23.30;82.80
39045;DHT22;52192;52.002;5.956;2023-08-12T04:22:23;23.30;82.90
39045;DHT22;52192;52.002;5.956;2023-08-12T04:24:49;23.30;82.90
39045;DHT22;52192;52.002;5.956;2023-08-12T04:27:14;23.30;82.90
39045;DHT22;52192;52.002;5.956;2023-08-12T04:29:42;23.30;82.90
39045;DHT22;52192;52.002;5.956;2023-08-12T04:32:08;23.30;82.90
39045;DHT22;52192;52.002;5.956;2023-08-12T04:34:33;23.30;82.90
39045;DHT22;52192;52.002;5.956;2023-08-12T04:36:59;23.20;82.90
39045;DHT22;52192;52.002;5.956;2023-08-12T04:39:25;23.30;83.00
39045;DHT22;52192;52.002;5.956;2023-08-12T04:41:51;23.30;83.00
39045;DHT22;52192;52.002;5.956;2023-08-12T04:44:16;23.30;83.00
39045;DHT22;52192;52.002;5.956;2023-08-12T04:46:42;23.30;83.00
39045;DHT22;52192;52.002;5.956;2023-08-12T04:49:08;23.30;83.10
39045;DHT22;52192;52.002;5.956;2023-08-12T04:51:34;23.30;83.20
39045;DHT22;52192;52.002;5.956;2023-08-12T04:53:59;23.30;83.20
39045;DHT22;52192;52.002;5.956;2023-08-12T04:56:27;23.30;83.30
39045;DHT22;52192;52.002;5.956;2023-08-12T04:58:54;23.20;83.30
39045;DHT22;52192;52.002;5.956;2023-08-12T05:01:20;23.30;83.40
39045;DHT22;52192;52.002;5.956;2023-08-12T05:03:46;23.30;83.30
39045;DHT22;52192;52.002;5.956;2023-08-12T05:06:11;23.30;83.40
39045;DHT22;52192;52.002;5.956;2023-08-12T05:08:37;23.30;83.60
39045;DHT22;52192;52.002;5.956;2023-08-12T05:11:03;23.30;83.40
39045;DHT22;52192;52.002;5.956;2023-08-12T05:13:28;23.30;83.40
39045;DHT22;52192;52.002;5.956;2023-08-12T05:15:55;23.30;83.40
39045;DHT22;52192;52.002;5.956;2023-08-12T05:18:21;23.30;84.00
39045;DHT22;52192;52.002;5.956;2023-08-12T05:20:51;23.30;83.80
39045;DHT22;52192;52.002;5.956;2023-08-12T05:23:16;23.20;83.90
39045;DHT22;52192;52.002;5.956;2023-08-12T05:25:42;23.20;84.00
39045;DHT22;52192;52.002;5.956;2023-08-12T05:28:07;23.20;84.10
39045;DHT22;52192;52.002;5.956;2023-08-12T05:30:34;23.20;84.00
39045;DHT22;52192;52.002;5.956;2023-08-12T05:32:59;23.20;83.90
39045;DHT22;52192;52.002;5.956;2023-08-12T05:35:25;23.20;83.80
39045;DHT22;52192;52.002;5.956;2023-08-12T05:37:51;23.20;83.80
39045;DHT22;52192;52.002;5.956;2023-08-12T05:40:16;23.20;83.90
39045;DHT22;52192;52.002;5.956;2023-08-12T05:42:42;23.20;83.90
39045;DHT22;52192;52.002;5.956;2023-08-12T05:45:08;23.20;84.10
39045;DHT22;52192;52.002;5.956;2023-08-12T05:47:34;23.10;84.20
39045;DHT22;52192;52.002;5.956;2023-08-12T05:50:00;23.10;84.50
39045;DHT22;52192;52.002;5.956;2023-08-12T05:52:26;23.00;84.70
39045;DHT22;52192;52.002;5.956;2023-08-12T05:54:51;23.00;85.00
39045;DHT22;52192;52.002;5.956;2023-08-12T05:57:17;22.90;85.00
39045;DHT22;52192;52.002;5.956;2023-08-12T05:59:42;22.90;85.00
39045;DHT22;52192;52.002;5.956;2023-08-12T06:02:08;22.90;85.00
39045;DHT22;52192;52.002;5.956;2023-08-12T06:04:35;22.90;85.00
39045;DHT22;52192;52.002;5.956;2023-08-12T06:07:00;22.90;84.90
39045;DHT22;52192;52.002;5.956;2023-08-12T06:09:26;22.90;85.00
39045;DHT22;52192;52.002;5.956;2023-08-12T06:11:51;22.90;85.00
39045;DHT22;52192;52.002;5.956;2023-08-12T06:14:17;22.90;85.10
39045;DHT22;52192;52.002;5.956;2023-08-12T06:16:43;22.90;85.00
39045;DHT22;52192;52.002;5.956;2023-08-12T06:19:08;22.90;85.00
39045;DHT22;52192;52.002;5.956;2023-08-12T06:21:34;22.90;85.00
39045;DHT22;52192;52.002;5.956;2023-08-12T06:24:00;22.90;85.00
39045;DHT22;52192;52.002;5.956;2023-08-12T06:26:25;22.90;84.90
39045;DHT22;52192;52.002;5.956;2023-08-12T06:28:51;22.90;84.90
39045;DHT22;52192;52.002;5.956;2023-08-12T06:31:17;22.80;84.90
39045;DHT22;52192;52.002;5.956;2023-08-12T06:33:42;22.80;85.00
39045;DHT22;52192;52.002;5.956;2023-08-12T06:36:08;22.80;85.10
39045;DHT22;52192;52.002;5.956;2023-08-12T06:38:33;22.80;85.10
39045;DHT22;52192;52.002;5.956;2023-08-12T06:40:59;22.80;85.10
39045;DHT22;52192;52.002;5.956;2023-08-12T06:43:25;22.80;85.70
39045;DHT22;52192;52.002;5.956;2023-08-12T06:45:50;22.80;85.10
39045;DHT22;52192;52.002;5.956;2023-08-12T06:48:16;22.80;85.20
39045;DHT22;52192;52.002;5.956;2023-08-12T06:50:42;22.70;85.10
39045;DHT22;52192;52.002;5.956;2023-08-12T06:53:08;22.70;85.10
39045;DHT22;52192;52.002;5.956;2023-08-12T06:55:33;22.70;85.20
39045;DHT22;52192;52.002;5.956;2023-08-12T06:58:00;22.60;85.20
39045;DHT22;52192;52.002;5.956;2023-08-12T07:00:26;22.60;85.30
39045;DHT22;52192;52.002;5.956;2023-08-12T07:02:52;22.60;85.30
39045;DHT22;52192;52.002;5.956;2023-08-12T07:05:17;22.60;85.20
39045;DHT22;52192;52.002;5.956;2023-08-12T07:07:43;22.60;85.10
39045;DHT22;52192;52.002;5.956;2023-08-12T07:10:09;22.60;85.10
39045;DHT22;52192;52.002;5.956;2023-08-12T07:12:35;22.60;85.10
39045;DHT22;52192;52.002;5.956;2023-08-12T07:15:01;22.60;85.10
39045;DHT22;52192;52.002;5.956;2023-08-12T07:17:27;22.60;85.00
39045;DHT22;52192;52.002;5.956;2023-08-12T07:19:52;22.70;84.90
39045;DHT22;52192;52.002;5.956;2023-08-12T07:22:18;22.70;84.80
39045;DHT22;52192;52.002;5.956;2023-08-12T07:24:45;22.80;84.80
39045;DHT22;52192;52.002;5.956;2023-08-12T07:27:11;22.80;84.60
39045;DHT22;52192;52.002;5.956;2023-08-12T07:29:37;22.90;84.50
39045;DHT22;52192;52.002;5.956;2023-08-12T07:32:03;22.90;84.40
39045;DHT22;52192;52.002;5.956;2023-08-12T07:34:28;22.90;84.40
39045;DHT22;52192;52.002;5.956;2023-08-12T07:36:54;22.90;84.50
39045;DHT22;52192;52.002;5.956;2023-08-12T07:39:20;22.90;84.30
39045;DHT22;52192;52.002;5.956;2023-08-12T07:41:45;22.90;84.40
39045;DHT22;52192;52.002;5.956;2023-08-12T07:44:11;22.90;84.40
39045;DHT22;52192;52.002;5.956;2023-08-12T07:46:37;22.90;84.50
39045;DHT22;52192;52.002;5.956;2023-08-12T07:49:03;22.90;84.40
39045;DHT22;52192;52.002;5.956;2023-08-12T07:51:29;22.90;84.40
39045;DHT22;52192;52.002;5.956;2023-08-12T07:53:55;22.90;84.50
39045;DHT22;52192;52.002;5.956;2023-08-12T07:56:21;22.90;84.70
39045;DHT22;52192;52.002;5.956;2023-08-12T07:58:46;22.90;84.60
39045;DHT22;52192;52.002;5.956;2023-08-12T08:01:13;22.80;84.60
39045;DHT22;52192;52.002;5.956;2023-08-12T08:03:39;22.80;84.70
39045;DHT22;52192;52.002;5.956;2023-08-12T08:06:05;22.60;84.90
39045;DHT22;52192;52.002;5.956;2023-08-12T08:08:30;22.60;85.10
39045;DHT22;52192;52.002;5.956;2023-08-12T08:10:56;22.60;85.10
39045;DHT22;52192;52.002;5.956;2023-08-12T08:13:21;22.60;85.20
39045;DHT22;52192;52.002;5.956;2023-08-12T08:15:47;22.60;85.10
39045;DHT22;52192;52.002;5.956;2023-08-12T08:18:13;22.60;85.10
39045;DHT22;52192;52.002;5.956;2023-08-12T08:20:39;22.60;85.10
39045;DHT22;52192;52.002;5.956;2023-08-12T08:23:07;22.60;85.20
39045;DHT22;52192;52.002;5.956;2023-08-12T08:25:33;22.60;85.20
39045;DHT22;52192;52.002;5.956;2023-08-12T08:27:58;22.60;85.30
39045;DHT22;52192;52.002;5.956;2023-08-12T08:30:24;22.60;85.40
39045;DHT22;52192;52.002;5.956;2023-08-12T08:32:51;22.60;85.40
39045;DHT22;52192;52.002;5.956;2023-08-12T08:35:17;22.60;85.40
39045;DHT22;52192;52.002;5.956;2023-08-12T08:37:42;22.70;85.60
39045;DHT22;52192;52.002;5.956;2023-08-12T08:40:08;22.70;85.70
39045;DHT22;52192;52.002;5.956;2023-08-12T08:42:34;22.70;85.70
39045;DHT22;52192;52.002;5.956;2023-08-12T08:45:01;22.70;85.80
39045;DHT22;52192;52.002;5.956;2023-08-12T08:47:28;22.70;85.90
39045;DHT22;52192;52.002;5.956;2023-08-12T08:49:55;22.70;85.90
39045;DHT22;52192;52.002;5.956;2023-08-12T08:52:24;22.70;86.20
39045;DHT22;52192;52.002;5.956;2023-08-12T08:54:51;22.70;86.40
39045;DHT22;52192;52.002;5.956;2023-08-12T08:57:18;22.70;86.40
39045;DHT22;52192;52.002;5.956;2023-08-12T08:59:43;22.70;86.40
39045;DHT22;52192;52.002;5.956;2023-08-12T09:02:18;22.70;86.50
39045;DHT22;52192;52.002;5.956;2023-08-12T09:04:45;22.70;86.90
39045;DHT22;52192;52.002;5.956;2023-08-12T09:07:12;22.70;87.20
39045;DHT22;52192;52.002;5.956;2023-08-12T09:09:46;22.60;87.30
39045;DHT22;52192;52.002;5.956;2023-08-12T09:12:15;22.60;87.50
39045;DHT22;52192;52.002;5.956;2023-08-12T09:14:44;22.60;87.50
39045;DHT22;52192;52.002;5.956;2023-08-12T09:17:10;22.60;87.50
39045;DHT22;52192;52.002;5.956;2023-08-12T09:19:37;22.60;87.60
39045;DHT22;52192;52.002;5.956;2023-08-12T09:22:04;22.70;87.50
39045;DHT22;52192;52.002;5.956;2023-08-12T09:24:31;22.70;87.40
39045;DHT22;52192;52.002;5.956;2023-08-12T09:26:56;22.70;87.40
39045;DHT22;52192;52.002;5.956;2023-08-12T09:29:32;22.70;87.40
39045;DHT22;52192;52.002;5.956;2023-08-12T09:32:12;22.80;87.50
39045;DHT22;52192;52.002;5.956;2023-08-12T09:34:48;22.80;87.30
39045;DHT22;52192;52.002;5.956;2023-08-12T09:37:15;22.80;87.20
39045;DHT22;52192;52.002;5.956;2023-08-12T09:39:41;22.90;87.20
39045;DHT22;52192;52.002;5.956;2023-08-12T09:42:07;23.00;87.20
39045;DHT22;52192;52.002;5.956;2023-08-12T09:44:35;23.00;86.90
39045;DHT22;52192;52.002;5.956;2023-08-12T09:47:01;23.10;86.70
39045;DHT22;52192;52.002;5.956;2023-08-12T09:49:27;23.20;86.50
39045;DHT22;52192;52.002;5.956;2023-08-12T09:51:53;23.30;86.30
39045;DHT22;52192;52.002;5.956;2023-08-12T09:54:19;23.40;86.10
39045;DHT22;52192;52.002;5.956;2023-08-12T09:56:48;23.50;85.70
39045;DHT22;52192;52.002;5.956;2023-08-12T09:59:19;23.60;85.70
39045;DHT22;52192;52.002;5.956;2023-08-12T10:01:46;23.70;85.20
39045;DHT22;52192;52.002;5.956;2023-08-12T10:04:14;23.60;84.60
39045;DHT22;52192;52.002;5.956;2023-08-12T10:06:42;23.60;84.70
39045;DHT22;52192;52.002;5.956;2023-08-12T10:09:10;23.60;84.80
39045;DHT22;52192;52.002;5.956;2023-08-12T10:11:37;23.60;84.50
39045;DHT22;52192;52.002;5.956;2023-08-12T10:14:04;23.40;84.80
39045;DHT22;52192;52.002;5.956;2023-08-12T10:16:30;23.30;84.70
39045;DHT22;52192;52.002;5.956;2023-08-12T10:18:57;23.30;85.20
39045;DHT22;52192;52.002;5.956;2023-08-12T10:21:24;23.50;85.30
39045;DHT22;52192;52.002;5.956;2023-08-12T10:23:51;23.80;85.10
39045;DHT22;52192;52.002;5.956;2023-08-12T10:26:17;24.10;84.70
39045;DHT22;52192;52.002;5.956;2023-08-12T10:28:43;24.50;84.00
39045;DHT22;52192;52.002;5.956;2023-08-12T10:31:11;24.60;82.80
39045;DHT22;52192;52.002;5.956;2023-08-12T10:33:41;24.60;82.80
39045;DHT22;52192;52.002;5.956;2023-08-12T10:36:07;24.50;82.50
39045;DHT22;52192;52.002;5.956;2023-08-12T10:38:34;24.30;82.70
39045;DHT22;52192;52.002;5.956;2023-08-12T10:43:52;23.90;81.60
39045;DHT22;52192;52.002;5.956;2023-08-12T10:46:33;23.80;82.00
39045;DHT22;52192;52.002;5.956;2023-08-12T10:51:51;23.80;82.20
39045;DHT22;52192;52.002;5.956;2023-08-12T10:57:10;23.70;82.00
39045;DHT22;52192;52.002;5.956;2023-08-12T11:04:57;24.00;81.00
39045;DHT22;52192;52.002;5.956;2023-08-12T11:07:41;24.20;80.10
39045;DHT22;52192;52.002;5.956;2023-08-12T11:12:47;24.60;78.80
39045;DHT22;52192;52.002;5.956;2023-08-12T11:15:13;24.80;78.20
39045;DHT22;52192;52.002;5.956;2023-08-12T11:17:40;25.10;77.60
39045;DHT22;52192;52.002;5.956;2023-08-12T11:20:08;25.30;75.80
39045;DHT22;52192;52.002;5.956;2023-08-12T11:22:42;25.40;74.60
39045;DHT22;52192;52.002;5.956;2023-08-12T11:25:10;25.40;73.90
39045;DHT22;52192;52.002;5.956;2023-08-12T11:27:41;25.40;70.80
39045;DHT22;52192;52.002;5.956;2023-08-12T11:30:08;25.50;71.50
39045;DHT22;52192;52.002;5.956;2023-08-12T11:32:34;25.60;71.30
39045;DHT22;52192;52.002;5.956;2023-08-12T11:35:00;25.80;70.90
39045;DHT22;52192;52.002;5.956;2023-08-12T11:37:26;26.00;71.10
39045;DHT22;52192;52.002;5.956;2023-08-12T11:39:52;26.10;68.30
39045;DHT22;52192;52.002;5.956;2023-08-12T11:42:18;26.20;68.70
39045;DHT22;52192;52.002;5.956;2023-08-12T11:44:44;26.20;68.70
39045;DHT22;52192;52.002;5.956;2023-08-12T11:47:09;26.30;66.70
39045;DHT22;52192;52.002;5.956;2023-08-12T11:49:35;26.20;64.90
39045;DHT22;52192;52.002;5.956;2023-08-12T11:52:01;26.10;65.90
39045;DHT22;52192;52.002;5.956;2023-08-12T11:54:27;26.20;64.50
39045;DHT22;52192;52.002;5.956;2023-08-12T11:56:53;26.20;64.50
39045;DHT22;52192;52.002;5.956;2023-08-12T11:59:21;26.10;63.80
39045;DHT22;52192;52.002;5.956;2023-08-12T12:01:49;26.10;64.70
39045;DHT22;52192;52.002;5.956;2023-08-12T12:04:15;26.30;65.40
39045;DHT22;52192;52.002;5.956;2023-08-12T12:06:41;26.70;64.50
39045;DHT22;52192;52.002;5.956;2023-08-12T12:09:08;27.10;64.70
39045;DHT22;52192;52.002;5.956;2023-08-12T12:11:38;27.30;63.60
39045;DHT22;52192;52.002;5.956;2023-08-12T12:14:05;27.60;63.10
39045;DHT22;52192;52.002;5.956;2023-08-12T12:16:38;27.80;63.10
39045;DHT22;52192;52.002;5.956;2023-08-12T12:19:05;28.20;62.40
39045;DHT22;52192;52.002;5.956;2023-08-12T12:21:41;28.20;59.40
39045;DHT22;52192;52.002;5.956;2023-08-12T12:24:10;27.90;59.30
39045;DHT22;52192;52.002;5.956;2023-08-12T12:26:36;27.60;60.80
39045;DHT22;52192;52.002;5.956;2023-08-12T12:29:05;27.70;61.70
39045;DHT22;52192;52.002;5.956;2023-08-12T12:31:35;28.00;61.00
39045;DHT22;52192;52.002;5.956;2023-08-12T12:34:02;28.00;59.40
39045;DHT22;52192;52.002;5.956;2023-08-12T12:36:30;27.80;59.40
39045;DHT22;52192;52.002;5.956;2023-08-12T12:38:55;27.70;58.80
39045;DHT22;52192;52.002;5.956;2023-08-12T12:41:21;27.70;59.60
39045;DHT22;52192;52.002;5.956;2023-08-12T12:43:47;27.80;59.70
39045;DHT22;52192;52.002;5.956;2023-08-12T12:46:13;27.80;59.60
39045;DHT22;52192;52.002;5.956;2023-08-12T12:48:38;27.70;57.40
39045;DHT22;52192;52.002;5.956;2023-08-12T12:51:04;27.60;58.30
39045;DHT22;52192;52.002;5.956;2023-08-12T12:53:30;27.60;58.80
39045;DHT22;52192;52.002;5.956;2023-08-12T12:55:55;27.70;58.10
39045;DHT22;52192;52.002;5.956;2023-08-12T12:58:23;27.90;58.50
39045;DHT22;52192;52.002;5.956;2023-08-12T13:00:49;28.20;57.30
39045;DHT22;52192;52.002;5.956;2023-08-12T13:03:14;28.50;57.10
39045;DHT22;52192;52.002;5.956;2023-08-12T13:05:40;28.50;56.40
39045;DHT22;52192;52.002;5.956;2023-08-12T13:08:06;28.20;56.40
39045;DHT22;52192;52.002;5.956;2023-08-12T13:10:31;28.00;57.20
39045;DHT22;52192;52.002;5.956;2023-08-12T13:12:57;27.80;56.80
39045;DHT22;52192;52.002;5.956;2023-08-12T13:15:23;27.50;57.30
39045;DHT22;52192;52.002;5.956;2023-08-12T13:17:50;27.30;57.90
39045;DHT22;52192;52.002;5.956;2023-08-12T13:20:16;27.20;57.80
39045;DHT22;52192;52.002;5.956;2023-08-12T13:22:42;27.20;58.40
39045;DHT22;52192;52.002;5.956;2023-08-12T13:25:07;27.20;57.30
39045;DHT22;52192;52.002;5.956;2023-08-12T13:27:33;27.20;57.80
39045;DHT22;52192;52.002;5.956;2023-08-12T13:29:59;27.30;57.90
39045;DHT22;52192;52.002;5.956;2023-08-12T13:32:24;27.30;56.40
39045;DHT22;52192;52.002;5.956;2023-08-12T13:34:50;27.40;56.80
39045;DHT22;52192;52.002;5.956;2023-08-12T13:37:16;27.50;57.00
39045;DHT22;52192;52.002;5.956;2023-08-12T13:39:42;27.70;55.70
39045;DHT22;52192;52.002;5.956;2023-08-12T13:42:07;27.90;56.10
39045;DHT22;52192;52.002;5.956;2023-08-12T13:44:33;28.10;55.20
39045;DHT22;52192;52.002;5.956;2023-08-12T13:46:58;28.30;54.30
39045;DHT22;52192;52.002;5.956;2023-08-12T13:49:24;28.20;54.60
39045;DHT22;52192;52.002;5.956;2023-08-12T13:51:50;28.00;55.40
39045;DHT22;52192;52.002;5.956;2023-08-12T13:54:16;27.70;55.30
39045;DHT22;52192;52.002;5.956;2023-08-12T13:56:41;27.10;55.30
39045;DHT22;52192;52.002;5.956;2023-08-12T13:59:07;26.90;57.10
39045;DHT22;52192;52.002;5.956;2023-08-12T14:01:33;26.70;57.80
39045;DHT22;52192;52.002;5.956;2023-08-12T14:03:58;26.60;58.50
39045;DHT22;52192;52.002;5.956;2023-08-12T14:06:24;26.60;59.50
39045;DHT22;52192;52.002;5.956;2023-08-12T14:08:49;26.70;58.80
39045;DHT22;52192;52.002;5.956;2023-08-12T14:11:15;26.70;57.50
39045;DHT22;52192;52.002;5.956;2023-08-12T14:13:41;27.10;57.90
39045;DHT22;52192;52.002;5.956;2023-08-12T14:16:06;27.50;57.10
39045;DHT22;52192;52.002;5.956;2023-08-12T14:18:32;27.80;55.90
39045;DHT22;52192;52.002;5.956;2023-08-12T14:20:58;28.20;54.90
39045;DHT22;52192;52.002;5.956;2023-08-12T14:23:23;28.50;54.30
39045;DHT22;52192;52.002;5.956;2023-08-12T14:25:49;28.80;53.40
39045;DHT22;52192;52.002;5.956;2023-08-12T14:28:16;29.10;50.40
39045;DHT22;52192;52.002;5.956;2023-08-12T14:30:41;28.90;50.90
39045;DHT22;52192;52.002;5.956;2023-08-12T14:33:07;28.90;50.80
39045;DHT22;52192;52.002;5.956;2023-08-12T14:35:36;29.10;50.80
39045;DHT22;52192;52.002;5.956;2023-08-12T14:38:01;29.20;50.30
39045;DHT22;52192;52.002;5.956;2023-08-12T14:40:27;29.40;49.00
39045;DHT22;52192;52.002;5.956;2023-08-12T14:42:53;29.20;48.30
39045;DHT22;52192;52.002;5.956;2023-08-12T14:45:19;29.20;47.40
39045;DHT22;52192;52.002;5.956;2023-08-12T14:47:44;29.10;48.20
39045;DHT22;52192;52.002;5.956;2023-08-12T14:50:10;29.10;47.30
39045;DHT22;52192;52.002;5.956;2023-08-12T14:52:36;28.90;47.70
39045;DHT22;52192;52.002;5.956;2023-08-12T14:55:01;28.70;47.90
39045;DHT22;52192;52.002;5.956;2023-08-12T14:57:27;28.80;48.10
39045;DHT22;52192;52.002;5.956;2023-08-12T14:59:53;28.80;46.40
39045;DHT22;52192;52.002;5.956;2023-08-12T15:02:21;29.00;46.00
39045;DHT22;52192;52.002;5.956;2023-08-12T15:04:50;29.00;46.60
39045;DHT22;52192;52.002;5.956;2023-08-12T15:07:16;29.00;44.50
39045;DHT22;52192;52.002;5.956;2023-08-12T15:09:44;28.80;45.50
39045;DHT22;52192;52.002;5.956;2023-08-12T15:12:09;28.70;45.90
39045;DHT22;52192;52.002;5.956;2023-08-12T15:14:35;28.70;46.50
39045;DHT22;52192;52.002;5.956;2023-08-12T15:17:01;28.70;45.80
39045;DHT22;52192;52.002;5.956;2023-08-12T15:19:26;28.80;46.80
39045;DHT22;52192;52.002;5.956;2023-08-12T15:21:52;28.70;45.80
39045;DHT22;52192;52.002;5.956;2023-08-12T15:24:18;28.70;46.40
39045;DHT22;52192;52.002;5.956;2023-08-12T15:26:43;28.70;46.90
39045;DHT22;52192;52.002;5.956;2023-08-12T15:29:09;28.90;46.60
39045;DHT22;52192;52.002;5.956;2023-08-12T15:31:36;29.10;47.30
39045;DHT22;52192;52.002;5.956;2023-08-12T15:34:02;29.20;45.80
39045;DHT22;52192;52.002;5.956;2023-08-12T15:36:28;29.10;46.00
39045;DHT22;52192;52.002;5.956;2023-08-12T15:38:54;29.20;46.60
39045;DHT22;52192;52.002;5.956;2023-08-12T15:41:20;29.10;46.80
39045;DHT22;52192;52.002;5.956;2023-08-12T15:43:47;29.00;47.20